Impacts TAF Board
For situational awareness. Not to be used for flight planning purposes.
IDs:

KMEM - Memphis Intl, TN, US

Issued at 1130 UTC 10 Aug 2022
Updated at 1433 UTC 10 Aug 2022
Potential Impact None Slight Moderate High
Time1354Z 10/15Z 10/16Z 10/17Z 10/18Z 10/19Z 10/20Z 10/21Z 10/22Z 10/23Z 11/00Z 11/01Z 11/02Z 11/03Z>>
Type OBS PRVL PRVL PRVL PRVL PRVL PRVL PRVL PRVL PRVL PRVL PRVL PRVL PRVL
VIS 10 >6 >6 >6 >6 >6 >6 >6 >6 >6 >6 >6 >6 >6
CIG 120 120 120 120 120 120 120 120 120 120 120 -- -- --
Cover OVC BKN BKN BKN OVC OVC OVC OVC OVC OVC OVC SCT SCT SCT
FltCat VFR VFR VFR VFR VFR VFR VFR VFR VFR VFR VFR VFR VFR VFR
WX -- VCSH VCSH VCSH VCTS VCTS VCTS VCTS VCTS VCTS VCTS -- -- --
WDir 210 200 200 200 210 210 210 210 210 210 210 160 160 160
WSpd 5 5 5 5 7 7 7 7 7 7 7 4 4 4
WGst -- -- -- -- -- -- -- -- -- -- -- -- -- --
WSHgt -- -- -- -- -- -- -- -- -- -- -- -- -- --
WSDir -- -- -- -- -- -- -- -- -- -- -- -- -- --
WSSpd -- -- -- -- -- -- -- -- -- -- -- -- -- --
Raw TAF
KMEM 101130Z 1012/1118 20005KT P6SM VCSH SCT020 BKN120
  FM101800 21007KT P6SM VCTS SCT040CB OVC120
  FM110100 16004KT P6SM SCT060 SCT100
  FM111000 VRB03KT 6SM BR VCSH BKN015 BKN100
  FM111500 07004KT P6SM VCSH BKN035


Raw METAR
KMEM 101354Z 21005KT 10SM SCT007 SCT030 OVC120 25/22 A3012 RMK AO2 SLP196 T02500222
KMEM 101346Z 19005KT 10SM FEW007 SCT040 BKN110 OVC200 25/22 A3013 RMK AO2 T02500222
KMEM 101254Z 21004KT 10SM FEW010 BKN120 OVC150 24/22 A3013 RMK AO2 SLP198 T02390217
KMEM 101154Z 19005KT 10SM BKN140 24/22 A3012 RMK AO2 SLP196 70033 T02390217 10239 20233 53015

METAR Board
Radar Display
Forecast Discussion
For situational awareness. Not to be used for flight planning purposes.